< < Back
Terminal Aerodrome Forecast


Current Version              Previous Versions:   1  2  3  4  5  6  7  8  9  

Terminal Aerodrome Forecast

439
FTUS42 KJAX 240800 AAC
TAFGNV
TAF AMD
KGNV 240812Z 2408/2506 25004KT 2SM BR OVC003
      TEMPO 2409/2412 1/2SM FG OVC002
     FM241300 15006KT P6SM SCT050
     FM242100 21008KT P6SM BKN050=

Latest METAR

619
SAUS70 KWBC 250200 RRH
MTRGNV
METAR KGNV 250153Z 25007KT 10SM CLR 22/16 A2996 RMK AO2 SLP143
T02220161


USA.gov is the U.S. government's official web portal to all federal, state and local government web resources and services.